sensor_id;sensor_type;location;lat;lon;timestamp;pressure;altitude;pressure_sealevel;temperature;humidity
11808;BME280;5961;42.640;23.380;2023-02-07T00:00:44;95275.41;;;-2.00;71.21
11808;BME280;5961;42.640;23.380;2023-02-07T00:03:13;95285.34;;;-2.08;71.34
11808;BME280;5961;42.640;23.380;2023-02-07T00:05:40;95281.50;;;-2.06;70.85
11808;BME280;5961;42.640;23.380;2023-02-07T00:08:07;95279.91;;;-2.07;71.10
11808;BME280;5961;42.640;23.380;2023-02-07T00:10:34;95270.75;;;-2.09;70.96
11808;BME280;5961;42.640;23.380;2023-02-07T00:13:01;95269.84;;;-2.15;71.34
11808;BME280;5961;42.640;23.380;2023-02-07T00:15:28;95290.78;;;-2.10;71.46
11808;BME280;5961;42.640;23.380;2023-02-07T00:17:55;95289.19;;;-2.11;71.51
11808;BME280;5961;42.640;23.380;2023-02-07T00:20:23;95309.00;;;-2.10;71.99
11808;BME280;5961;42.640;23.380;2023-02-07T00:22:50;95294.97;;;-2.09;72.54
11808;BME280;5961;42.640;23.380;2023-02-07T00:25:19;95301.75;;;-2.08;71.86
11808;BME280;5961;42.640;23.380;2023-02-07T00:27:46;95299.59;;;-2.11;71.92
11808;BME280;5961;42.640;23.380;2023-02-07T00:30:13;95307.22;;;-2.09;72.15
11808;BME280;5961;42.640;23.380;2023-02-07T00:32:40;95309.56;;;-2.08;72.01
11808;BME280;5961;42.640;23.380;2023-02-07T00:35:07;95313.97;;;-2.08;72.38
11808;BME280;5961;42.640;23.380;2023-02-07T00:37:36;95309.47;;;-2.13;72.86
11808;BME280;5961;42.640;23.380;2023-02-07T00:40:03;95305.69;;;-2.17;73.28
11808;BME280;5961;42.640;23.380;2023-02-07T00:42:30;95311.63;;;-2.10;73.03
11808;BME280;5961;42.640;23.380;2023-02-07T00:44:57;95311.38;;;-2.08;72.76
11808;BME280;5961;42.640;23.380;2023-02-07T00:47:23;95316.59;;;-2.08;73.16
11808;BME280;5961;42.640;23.380;2023-02-07T00:49:50;95313.66;;;-2.12;73.29
11808;BME280;5961;42.640;23.380;2023-02-07T00:52:17;95318.88;;;-2.12;73.32
11808;BME280;5961;42.640;23.380;2023-02-07T00:54:45;95322.38;;;-2.06;73.63
11808;BME280;5961;42.640;23.380;2023-02-07T00:57:12;95304.00;;;-2.11;73.58
11808;BME280;5961;42.640;23.380;2023-02-07T00:59:38;95313.22;;;-2.09;74.09
11808;BME280;5961;42.640;23.380;2023-02-07T01:02:05;95318.19;;;-2.07;74.36
11808;BME280;5961;42.640;23.380;2023-02-07T01:04:32;95304.38;;;-2.08;74.34
11808;BME280;5961;42.640;23.380;2023-02-07T01:06:58;95306.84;;;-2.13;73.59
11808;BME280;5961;42.640;23.380;2023-02-07T01:09:25;95294.72;;;-2.19;73.79
11808;BME280;5961;42.640;23.380;2023-02-07T01:11:53;95304.38;;;-2.08;73.45
11808;BME280;5961;42.640;23.380;2023-02-07T01:14:20;95300.63;;;-2.12;73.54
11808;BME280;5961;42.640;23.380;2023-02-07T01:16:46;95313.97;;;-2.08;73.39
11808;BME280;5961;42.640;23.380;2023-02-07T01:19:14;95296.78;;;-2.09;73.69
11808;BME280;5961;42.640;23.380;2023-02-07T01:21:41;95305.16;;;-2.07;73.92
11808;BME280;5961;42.640;23.380;2023-02-07T01:24:07;95305.53;;;-2.04;74.59
11808;BME280;5961;42.640;23.380;2023-02-07T01:26:35;95304.97;;;-2.06;73.71
11808;BME280;5961;42.640;23.380;2023-02-07T01:29:03;95308.34;;;-2.05;73.72
11808;BME280;5961;42.640;23.380;2023-02-07T01:31:30;95288.50;;;-2.18;74.06
11808;BME280;5961;42.640;23.380;2023-02-07T01:33:58;95303.13;;;-2.05;73.91
11808;BME280;5961;42.640;23.380;2023-02-07T01:36:26;95287.16;;;-2.09;74.56
11808;BME280;5961;42.640;23.380;2023-02-07T01:38:54;95299.16;;;-2.08;73.90
11808;BME280;5961;42.640;23.380;2023-02-07T01:41:22;95282.06;;;-2.15;74.52
11808;BME280;5961;42.640;23.380;2023-02-07T01:43:55;95293.28;;;-2.15;74.14
11808;BME280;5961;42.640;23.380;2023-02-07T01:46:24;95293.09;;;-2.32;74.61
11808;BME280;5961;42.640;23.380;2023-02-07T01:48:52;95273.63;;;-2.29;75.11
11808;BME280;5961;42.640;23.380;2023-02-07T01:51:20;95278.53;;;-2.51;75.37
11808;BME280;5961;42.640;23.380;2023-02-07T01:53:48;95273.59;;;-2.41;75.48
11808;BME280;5961;42.640;23.380;2023-02-07T01:56:15;95275.38;;;-2.41;75.40
11808;BME280;5961;42.640;23.380;2023-02-07T01:58:42;95281.53;;;-2.36;75.37
11808;BME280;5961;42.640;23.380;2023-02-07T02:01:14;95277.16;;;-2.53;75.90
11808;BME280;5961;42.640;23.380;2023-02-07T02:03:46;95283.78;;;-2.39;75.84
11808;BME280;5961;42.640;23.380;2023-02-07T02:06:14;95262.13;;;-2.51;76.08
11808;BME280;5961;42.640;23.380;2023-02-07T02:08:42;95281.63;;;-2.42;75.85
11808;BME280;5961;42.640;23.380;2023-02-07T02:11:22;95287.16;;;-2.39;76.65
11808;BME280;5961;42.640;23.380;2023-02-07T02:13:57;95288.31;;;-2.35;76.49
11808;BME280;5961;42.640;23.380;2023-02-07T02:16:36;95287.88;;;-2.32;76.98
11808;BME280;5961;42.640;23.380;2023-02-07T02:19:23;95292.28;;;-2.32;76.44
11808;BME280;5961;42.640;23.380;2023-02-07T02:25:17;95284.72;;;-2.34;76.17
11808;BME280;5961;42.640;23.380;2023-02-07T02:28:08;95290.28;;;-2.30;75.75
11808;BME280;5961;42.640;23.380;2023-02-07T02:30:59;95290.59;;;-2.27;75.07
11808;BME280;5961;42.640;23.380;2023-02-07T02:33:40;95293.88;;;-2.31;76.15
11808;BME280;5961;42.640;23.380;2023-02-07T02:36:21;95293.44;;;-2.28;75.83
11808;BME280;5961;42.640;23.380;2023-02-07T02:38:59;95288.25;;;-2.28;75.53
11808;BME280;5961;42.640;23.380;2023-02-07T02:41:30;95290.97;;;-2.23;75.46
11808;BME280;5961;42.640;23.380;2023-02-07T02:44:05;95290.16;;;-2.24;75.74
11808;BME280;5961;42.640;23.380;2023-02-07T02:46:35;95296.53;;;-2.19;75.62
11808;BME280;5961;42.640;23.380;2023-02-07T02:49:07;95288.34;;;-2.23;74.93
11808;BME280;5961;42.640;23.380;2023-02-07T02:51:34;95296.97;;;-2.23;74.96
11808;BME280;5961;42.640;23.380;2023-02-07T02:54:01;95277.91;;;-2.35;74.51
11808;BME280;5961;42.640;23.380;2023-02-07T02:56:46;95302.97;;;-2.22;75.10
11808;BME280;5961;42.640;23.380;2023-02-07T02:59:29;95306.81;;;-2.25;75.14
11808;BME280;5961;42.640;23.380;2023-02-07T03:02:06;95283.56;;;-2.38;75.58
11808;BME280;5961;42.640;23.380;2023-02-07T03:04:53;95306.66;;;-2.30;75.26
11808;BME280;5961;42.640;23.380;2023-02-07T03:07:38;95310.66;;;-2.27;75.44
11808;BME280;5961;42.640;23.380;2023-02-07T03:10:13;95303.88;;;-2.28;74.76
11808;BME280;5961;42.640;23.380;2023-02-07T03:12:49;95310.66;;;-2.27;75.03
11808;BME280;5961;42.640;23.380;2023-02-07T03:15:22;95316.19;;;-2.24;75.29
11808;BME280;5961;42.640;23.380;2023-02-07T03:17:57;95319.47;;;-2.28;75.11
11808;BME280;5961;42.640;23.380;2023-02-07T03:20:29;95310.94;;;-2.35;75.73
11808;BME280;5961;42.640;23.380;2023-02-07T03:22:58;95320.00;;;-2.38;75.67
11808;BME280;5961;42.640;23.380;2023-02-07T03:25:26;95313.56;;;-2.35;76.03
11808;BME280;5961;42.640;23.380;2023-02-07T03:27:55;95306.88;;;-2.43;75.67
11808;BME280;5961;42.640;23.380;2023-02-07T03:30:25;95314.44;;;-2.41;75.67
11808;BME280;5961;42.640;23.380;2023-02-07T03:32:55;95315.25;;;-2.41;75.63
11808;BME280;5961;42.640;23.380;2023-02-07T03:35:28;95297.97;;;-2.53;75.28
11808;BME280;5961;42.640;23.380;2023-02-07T03:37:58;95309.69;;;-2.44;75.35
11808;BME280;5961;42.640;23.380;2023-02-07T03:40:29;95318.84;;;-2.42;75.33
11808;BME280;5961;42.640;23.380;2023-02-07T03:43:02;95320.31;;;-2.46;75.28
11808;BME280;5961;42.640;23.380;2023-02-07T03:45:31;95320.53;;;-2.47;75.77
11808;BME280;5961;42.640;23.380;2023-02-07T03:47:58;95318.22;;;-2.55;75.94
11808;BME280;5961;42.640;23.380;2023-02-07T03:50:25;95310.75;;;-2.63;75.64
11808;BME280;5961;42.640;23.380;2023-02-07T03:52:53;95315.50;;;-2.60;75.54
11808;BME280;5961;42.640;23.380;2023-02-07T03:55:20;95310.75;;;-2.63;75.43
11808;BME280;5961;42.640;23.380;2023-02-07T03:57:47;95312.31;;;-2.62;75.63
11808;BME280;5961;42.640;23.380;2023-02-07T04:00:14;95311.09;;;-2.60;76.40
11808;BME280;5961;42.640;23.380;2023-02-07T04:02:41;95307.09;;;-2.62;76.64
11808;BME280;5961;42.640;23.380;2023-02-07T04:05:08;95309.88;;;-2.57;76.38
11808;BME280;5961;42.640;23.380;2023-02-07T04:07:34;95314.63;;;-2.54;76.27
11808;BME280;5961;42.640;23.380;2023-02-07T04:10:03;95216.56;;;-3.20;75.60
11808;BME280;5961;42.640;23.380;2023-02-07T04:12:30;95319.84;;;-2.54;75.48
11808;BME280;5961;42.640;23.380;2023-02-07T04:14:57;95313.03;;;-2.55;75.51
11808;BME280;5961;42.640;23.380;2023-02-07T04:17:24;95321.84;;;-2.56;75.39
11808;BME280;5961;42.640;23.380;2023-02-07T04:19:51;95304.00;;;-2.71;76.40
11808;BME280;5961;42.640;23.380;2023-02-07T04:22:18;95307.09;;;-2.62;76.11
11808;BME280;5961;42.640;23.380;2023-02-07T04:24:45;95305.09;;;-2.60;75.83
11808;BME280;5961;42.640;23.380;2023-02-07T04:27:13;95311.31;;;-2.61;76.36
11808;BME280;5961;42.640;23.380;2023-02-07T04:29:40;95304.16;;;-2.66;76.48
11808;BME280;5961;42.640;23.380;2023-02-07T04:32:07;95308.34;;;-2.65;76.18
11808;BME280;5961;42.640;23.380;2023-02-07T04:34:33;95319.97;;;-2.67;76.36
11808;BME280;5961;42.640;23.380;2023-02-07T04:37:00;95303.66;;;-2.74;76.33
11808;BME280;5961;42.640;23.380;2023-02-07T04:39:27;95326.56;;;-2.65;76.11
11808;BME280;5961;42.640;23.380;2023-02-07T04:41:54;95319.63;;;-2.71;76.44
11808;BME280;5961;42.640;23.380;2023-02-07T04:44:22;95324.38;;;-2.68;76.42
11808;BME280;5961;42.640;23.380;2023-02-07T04:46:49;95320.22;;;-2.69;76.69
11808;BME280;5961;42.640;23.380;2023-02-07T04:49:15;95324.63;;;-2.69;76.56
11808;BME280;5961;42.640;23.380;2023-02-07T04:51:42;95322.22;;;-2.71;76.69
11808;BME280;5961;42.640;23.380;2023-02-07T04:54:09;95332.13;;;-2.80;77.33
11808;BME280;5961;42.640;23.380;2023-02-07T04:56:36;95329.91;;;-2.76;76.77
11808;BME280;5961;42.640;23.380;2023-02-07T04:59:03;95335.75;;;-2.81;76.98
11808;BME280;5961;42.640;23.380;2023-02-07T05:01:31;95340.25;;;-2.88;77.45
11808;BME280;5961;42.640;23.380;2023-02-07T05:03:58;95341.38;;;-2.84;77.14
11808;BME280;5961;42.640;23.380;2023-02-07T05:06:25;95338.22;;;-2.86;77.33
11808;BME280;5961;42.640;23.380;2023-02-07T05:08:52;95347.38;;;-2.83;77.18
11808;BME280;5961;42.640;23.380;2023-02-07T05:11:19;95337.84;;;-2.89;77.96
11808;BME280;5961;42.640;23.380;2023-02-07T05:13:45;95348.25;;;-2.89;78.24
11808;BME280;5961;42.640;23.380;2023-02-07T05:16:12;95353.81;;;-2.86;78.54
11808;BME280;5961;42.640;23.380;2023-02-07T05:18:40;95353.00;;;-2.86;78.66
11808;BME280;5961;42.640;23.380;2023-02-07T05:21:07;95357.28;;;-2.92;78.83
11808;BME280;5961;42.640;23.380;2023-02-07T05:23:35;95350.84;;;-2.89;78.69
11808;BME280;5961;42.640;23.380;2023-02-07T05:26:02;95345.13;;;-2.98;78.69
11808;BME280;5961;42.640;23.380;2023-02-07T05:28:29;95342.16;;;-3.01;79.16
11808;BME280;5961;42.640;23.380;2023-02-07T05:30:55;95360.53;;;-2.96;79.67
11808;BME280;5961;42.640;23.380;2023-02-07T05:33:22;95360.69;;;-2.91;79.69
11808;BME280;5961;42.640;23.380;2023-02-07T05:35:49;95360.63;;;-2.85;79.38
11808;BME280;5961;42.640;23.380;2023-02-07T05:38:17;95358.88;;;-2.91;79.53
11808;BME280;5961;42.640;23.380;2023-02-07T05:40:45;95361.63;;;-2.86;79.95
11808;BME280;5961;42.640;23.380;2023-02-07T05:43:13;95363.06;;;-2.90;79.03
11808;BME280;5961;42.640;23.380;2023-02-07T05:45:40;95365.88;;;-2.91;79.24
11808;BME280;5961;42.640;23.380;2023-02-07T05:48:07;95358.72;;;-2.96;79.08
11808;BME280;5961;42.640;23.380;2023-02-07T05:50:33;95369.06;;;-2.89;78.97
11808;BME280;5961;42.640;23.380;2023-02-07T05:53:02;95330.38;;;-3.22;78.73
11808;BME280;5961;42.640;23.380;2023-02-07T05:55:29;95366.75;;;-2.97;78.33
11808;BME280;5961;42.640;23.380;2023-02-07T05:57:56;95384.03;;;-2.85;78.73
11808;BME280;5961;42.640;23.380;2023-02-07T06:00:23;95382.66;;;-2.87;77.79
11808;BME280;5961;42.640;23.380;2023-02-07T06:02:50;95390.59;;;-2.82;77.57
11808;BME280;5961;42.640;23.380;2023-02-07T06:05:18;95389.94;;;-2.78;77.42
11808;BME280;5961;42.640;23.380;2023-02-07T06:07:46;95391.53;;;-2.77;77.80
11808;BME280;5961;42.640;23.380;2023-02-07T06:10:14;95381.78;;;-2.81;77.82
11808;BME280;5961;42.640;23.380;2023-02-07T06:12:41;95391.09;;;-2.73;77.17
11808;BME280;5961;42.640;23.380;2023-02-07T06:15:08;95363.78;;;-2.83;77.57
11808;BME280;5961;42.640;23.380;2023-02-07T06:17:35;95387.22;;;-2.64;77.28
11808;BME280;5961;42.640;23.380;2023-02-07T06:20:02;95375.19;;;-2.65;79.50
11808;BME280;5961;42.640;23.380;2023-02-07T06:22:30;95395.88;;;-2.52;79.73
11808;BME280;5961;42.640;23.380;2023-02-07T06:24:56;95393.41;;;-2.47;77.64
11808;BME280;5961;42.640;23.380;2023-02-07T06:27:25;95397.31;;;-2.38;77.16
11808;BME280;5961;42.640;23.380;2023-02-07T06:29:51;95399.47;;;-2.35;76.85
11808;BME280;5961;42.640;23.380;2023-02-07T06:32:18;95391.34;;;-2.09;100.00
11808;BME280;5961;42.640;23.380;2023-02-07T06:34:45;95402.53;;;-2.08;91.23
11808;BME280;5961;42.640;23.380;2023-02-07T06:37:12;95418.84;;;-2.13;81.47
11808;BME280;5961;42.640;23.380;2023-02-07T06:39:38;95406.63;;;-2.12;79.51
11808;BME280;5961;42.640;23.380;2023-02-07T06:42:05;95416.84;;;-1.99;77.81
11808;BME280;5961;42.640;23.380;2023-02-07T06:44:33;95418.25;;;-1.97;77.43
11808;BME280;5961;42.640;23.380;2023-02-07T06:47:00;95431.28;;;-1.97;76.23
11808;BME280;5961;42.640;23.380;2023-02-07T06:49:27;95427.34;;;-1.88;76.26
11808;BME280;5961;42.640;23.380;2023-02-07T06:51:53;95428.88;;;-1.98;76.04
11808;BME280;5961;42.640;23.380;2023-02-07T06:54:20;95433.00;;;-1.91;75.83
11808;BME280;5961;42.640;23.380;2023-02-07T06:56:47;95432.72;;;-2.01;75.47
11808;BME280;5961;42.640;23.380;2023-02-07T06:59:14;95398.47;;;-2.34;75.62
11808;BME280;5961;42.640;23.380;2023-02-07T07:01:42;95435.34;;;-2.19;75.85
11808;BME280;5961;42.640;23.380;2023-02-07T07:04:09;95434.41;;;-2.25;75.10
11808;BME280;5961;42.640;23.380;2023-02-07T07:06:35;95429.84;;;-2.29;75.39
11808;BME280;5961;42.640;23.380;2023-02-07T07:09:03;95427.53;;;-2.55;77.56
11808;BME280;5961;42.640;23.380;2023-02-07T07:11:30;95421.25;;;-2.48;77.84
11808;BME280;5961;42.640;23.380;2023-02-07T07:13:56;95414.97;;;-2.58;78.15
11808;BME280;5961;42.640;23.380;2023-02-07T07:16:24;95428.41;;;-2.61;78.36
11808;BME280;5961;42.640;23.380;2023-02-07T07:18:52;95431.00;;;-2.61;78.23
11808;BME280;5961;42.640;23.380;2023-02-07T07:21:19;95434.03;;;-2.64;78.12
11808;BME280;5961;42.640;23.380;2023-02-07T07:23:46;95432.69;;;-2.67;77.90
11808;BME280;5961;42.640;23.380;2023-02-07T07:26:13;95427.34;;;-2.72;77.96
11808;BME280;5961;42.640;23.380;2023-02-07T07:28:40;95425.38;;;-2.77;77.27
11808;BME280;5961;42.640;23.380;2023-02-07T07:31:07;95431.50;;;-2.71;76.60
11808;BME280;5961;42.640;23.380;2023-02-07T07:33:34;95391.94;;;-2.98;76.99
11808;BME280;5961;42.640;23.380;2023-02-07T07:36:03;95439.53;;;-2.72;76.49
11808;BME280;5961;42.640;23.380;2023-02-07T07:38:30;95419.66;;;-2.67;76.36
11808;BME280;5961;42.640;23.380;2023-02-07T07:40:57;95430.88;;;-2.66;75.89
11808;BME280;5961;42.640;23.380;2023-02-07T07:43:24;95423.63;;;-2.64;75.26
11808;BME280;5961;42.640;23.380;2023-02-07T07:45:51;95423.69;;;-2.71;74.12
11808;BME280;5961;42.640;23.380;2023-02-07T07:48:19;95422.22;;;-2.60;74.22
11808;BME280;5961;42.640;23.380;2023-02-07T07:50:46;95418.38;;;-2.58;74.55
11808;BME280;5961;42.640;23.380;2023-02-07T07:53:14;95410.69;;;-2.53;74.52
11808;BME280;5961;42.640;23.380;2023-02-07T07:55:42;95417.63;;;-2.47;74.29
11808;BME280;5961;42.640;23.380;2023-02-07T07:58:13;95422.28;;;-2.49;72.90
11808;BME280;5961;42.640;23.380;2023-02-07T08:00:40;95420.53;;;-2.55;72.81
11808;BME280;5961;42.640;23.380;2023-02-07T08:03:07;95425.81;;;-2.43;73.33
11808;BME280;5961;42.640;23.380;2023-02-07T08:05:33;95424.06;;;-2.49;72.70
11808;BME280;5961;42.640;23.380;2023-02-07T08:08:00;95422.03;;;-2.47;73.25
11808;BME280;5961;42.640;23.380;2023-02-07T08:10:28;95422.53;;;-2.57;72.81
11808;BME280;5961;42.640;23.380;2023-02-07T08:12:55;95425.69;;;-2.48;73.21
11808;BME280;5961;42.640;23.380;2023-02-07T08:15:22;95426.69;;;-2.49;73.07
11808;BME280;5961;42.640;23.380;2023-02-07T08:17:49;95421.84;;;-2.46;72.81
11808;BME280;5961;42.640;23.380;2023-02-07T08:20:16;95436.00;;;-2.42;72.81
11808;BME280;5961;42.640;23.380;2023-02-07T08:22:43;95412.72;;;-2.55;72.58
11808;BME280;5961;42.640;23.380;2023-02-07T08:25:10;95404.69;;;-2.53;72.79
11808;BME280;5961;42.640;23.380;2023-02-07T08:27:38;95415.84;;;-2.46;72.87
11808;BME280;5961;42.640;23.380;2023-02-07T08:30:07;95420.38;;;-2.42;72.69
11808;BME280;5961;42.640;23.380;2023-02-07T08:32:34;95429.03;;;-2.30;72.00
11808;BME280;5961;42.640;23.380;2023-02-07T08:35:00;95421.59;;;-2.26;71.59
11808;BME280;5961;42.640;23.380;2023-02-07T08:37:27;95410.66;;;-2.16;71.86
11808;BME280;5961;42.640;23.380;2023-02-07T08:39:54;95410.94;;;-2.06;70.68
11808;BME280;5961;42.640;23.380;2023-02-07T08:42:23;95409.00;;;-2.11;70.06
11808;BME280;5961;42.640;23.380;2023-02-07T08:44:51;95418.41;;;-2.10;68.98
11808;BME280;5961;42.640;23.380;2023-02-07T08:47:18;95416.66;;;-1.98;68.44
11808;BME280;5961;42.640;23.380;2023-02-07T08:49:45;95428.34;;;-1.89;69.07
11808;BME280;5961;42.640;23.380;2023-02-07T08:52:12;95374.13;;;-2.10;68.01
11808;BME280;5961;42.640;23.380;2023-02-07T08:54:38;95425.44;;;-1.81;67.99
11808;BME280;5961;42.640;23.380;2023-02-07T08:57:05;95416.38;;;-1.78;67.74
11808;BME280;5961;42.640;23.380;2023-02-07T08:59:32;95422.09;;;-1.70;67.52
11808;BME280;5961;42.640;23.380;2023-02-07T09:02:00;95419.59;;;-1.64;67.14
11808;BME280;5961;42.640;23.380;2023-02-07T09:04:27;95421.97;;;-1.63;67.34
11808;BME280;5961;42.640;23.380;2023-02-07T09:06:54;95408.81;;;-1.68;67.61
11808;BME280;5961;42.640;23.380;2023-02-07T09:09:20;95423.13;;;-1.59;67.40
11808;BME280;5961;42.640;23.380;2023-02-07T09:11:47;95421.31;;;-1.58;67.15
11808;BME280;5961;42.640;23.380;2023-02-07T09:14:14;95435.50;;;-1.54;67.58
11808;BME280;5961;42.640;23.380;2023-02-07T09:16:41;95439.25;;;-1.50;67.58
11808;BME280;5961;42.640;23.380;2023-02-07T09:19:09;95430.97;;;-1.47;68.01
11808;BME280;5961;42.640;23.380;2023-02-07T09:21:35;95435.19;;;-1.46;67.82
11808;BME280;5961;42.640;23.380;2023-02-07T09:24:02;95439.38;;;-1.45;67.31
11808;BME280;5961;42.640;23.380;2023-02-07T09:26:29;95439.38;;;-1.45;66.97
11808;BME280;5961;42.640;23.380;2023-02-07T09:28:58;95439.25;;;-1.50;66.99
11808;BME280;5961;42.640;23.380;2023-02-07T09:31:25;95433.56;;;-1.47;67.13
11808;BME280;5961;42.640;23.380;2023-02-07T09:33:52;95426.66;;;-1.42;67.19
11808;BME280;5961;42.640;23.380;2023-02-07T09:36:22;95419.75;;;-1.48;68.04
11808;BME280;5961;42.640;23.380;2023-02-07T09:38:49;95425.66;;;-1.41;68.08
11808;BME280;5961;42.640;23.380;2023-02-07T09:41:25;95397.63;;;-1.57;68.85
11808;BME280;5961;42.640;23.380;2023-02-07T09:44:02;95424.88;;;-1.41;68.31
11808;BME280;5961;42.640;23.380;2023-02-07T09:46:35;95427.16;;;-1.33;68.24
11808;BME280;5961;42.640;23.380;2023-02-07T09:49:05;95424.66;;;-1.28;66.75
11808;BME280;5961;42.640;23.380;2023-02-07T09:51:38;95410.47;;;-1.32;66.55
11808;BME280;5961;42.640;23.380;2023-02-07T09:54:12;95412.19;;;-1.26;67.21
11808;BME280;5961;42.640;23.380;2023-02-07T09:56:40;95402.47;;;-1.19;66.71
11808;BME280;5961;42.640;23.380;2023-02-07T09:59:19;95412.41;;;-1.39;66.92
11808;BME280;5961;42.640;23.380;2023-02-07T10:01:51;95397.09;;;-1.36;68.38
11808;BME280;5961;42.640;23.380;2023-02-07T10:04:28;95403.09;;;-1.35;67.90
11808;BME280;5961;42.640;23.380;2023-02-07T10:06:58;95398.34;;;-1.38;66.16
11808;BME280;5961;42.640;23.380;2023-02-07T10:09:28;95397.88;;;-1.35;66.51
11808;BME280;5961;42.640;23.380;2023-02-07T10:11:59;95397.09;;;-1.36;67.21
11808;BME280;5961;42.640;23.380;2023-02-07T10:14:51;95400.63;;;-1.30;66.71
11808;BME280;5961;42.640;23.380;2023-02-07T10:17:41;95366.69;;;-1.42;66.88
11808;BME280;5961;42.640;23.380;2023-02-07T10:20:31;95387.25;;;-1.34;65.73
11808;BME280;5961;42.640;23.380;2023-02-07T10:26:00;95379.53;;;-1.40;67.69
11808;BME280;5961;42.640;23.380;2023-02-07T10:29:07;95371.25;;;-1.37;67.95
11808;BME280;5961;42.640;23.380;2023-02-07T10:31:43;95375.22;;;-1.35;68.44
11808;BME280;5961;42.640;23.380;2023-02-07T10:34:14;95364.78;;;-1.35;68.89
11808;BME280;5961;42.640;23.380;2023-02-07T10:36:44;95353.44;;;-1.40;68.64
11808;BME280;5961;42.640;23.380;2023-02-07T10:39:16;95370.25;;;-1.36;69.34
11808;BME280;5961;42.640;23.380;2023-02-07T10:41:44;95371.47;;;-1.39;70.76
11808;BME280;5961;42.640;23.380;2023-02-07T10:44:13;95297.75;;;-1.81;71.81
11808;BME280;5961;42.640;23.380;2023-02-07T10:46:43;95360.81;;;-1.37;72.35
11808;BME280;5961;42.640;23.380;2023-02-07T10:49:17;95362.16;;;-1.46;71.62
11808;BME280;5961;42.640;23.380;2023-02-07T10:51:45;95360.13;;;-1.44;70.74
11808;BME280;5961;42.640;23.380;2023-02-07T10:54:15;95360.38;;;-1.46;71.65
11808;BME280;5961;42.640;23.380;2023-02-07T10:56:46;95362.28;;;-1.53;72.17
11808;BME280;5961;42.640;23.380;2023-02-07T10:59:37;95352.84;;;-1.54;72.16
11808;BME280;5961;42.640;23.380;2023-02-07T11:02:35;95348.44;;;-1.53;70.95
11808;BME280;5961;42.640;23.380;2023-02-07T11:05:05;95341.41;;;-1.41;71.93
11808;BME280;5961;42.640;23.380;2023-02-07T11:07:56;95350.19;;;-1.24;70.61
11808;BME280;5961;42.640;23.380;2023-02-07T11:10:26;95338.94;;;-1.13;69.78
11808;BME280;5961;42.640;23.380;2023-02-07T11:12:58;95330.19;;;-0.95;67.82
11808;BME280;5961;42.640;23.380;2023-02-07T11:15:32;95285.84;;;-1.07;67.28
11808;BME280;5961;42.640;23.380;2023-02-07T11:18:02;95331.63;;;-0.65;66.83
11808;BME280;5961;42.640;23.380;2023-02-07T11:20:31;95331.72;;;-0.60;66.22
11808;BME280;5961;42.640;23.380;2023-02-07T11:22:59;95270.44;;;-0.97;65.80
11808;BME280;5961;42.640;23.380;2023-02-07T11:25:32;95327.84;;;-0.57;66.03
11808;BME280;5961;42.640;23.380;2023-02-07T11:28:00;95322.16;;;-0.54;66.27
11808;BME280;5961;42.640;23.380;2023-02-07T11:30:28;95326.47;;;-0.48;64.75
11808;BME280;5961;42.640;23.380;2023-02-07T11:33:00;95331.69;;;-0.48;61.29
11808;BME280;5961;42.640;23.380;2023-02-07T11:35:28;95327.38;;;-0.54;60.86
11808;BME280;5961;42.640;23.380;2023-02-07T11:37:59;95325.03;;;-0.56;59.57
11808;BME280;5961;42.640;23.380;2023-02-07T11:40:30;95321.38;;;-0.54;59.97
11808;BME280;5961;42.640;23.380;2023-02-07T11:43:08;95312.50;;;-0.53;59.42
11808;BME280;5961;42.640;23.380;2023-02-07T11:45:38;95314.56;;;-0.56;60.44
11808;BME280;5961;42.640;23.380;2023-02-07T11:48:06;95318.78;;;-0.54;61.12
11808;BME280;5961;42.640;23.380;2023-02-07T11:50:35;95317.53;;;-0.52;62.29
11808;BME280;5961;42.640;23.380;2023-02-07T11:53:04;95313.41;;;-0.48;63.03
11808;BME280;5961;42.640;23.380;2023-02-07T11:55:34;95311.91;;;-0.44;62.76
11808;BME280;5961;42.640;23.380;2023-02-07T11:58:08;95307.50;;;-0.43;62.85
11808;BME280;5961;42.640;23.380;2023-02-07T12:00:36;95303.88;;;-0.42;63.14
11808;BME280;5961;42.640;23.380;2023-02-07T12:03:06;95307.81;;;-0.12;62.50
11808;BME280;5961;42.640;23.380;2023-02-07T12:05:38;95298.25;;;-0.06;60.59
11808;BME280;5961;42.640;23.380;2023-02-07T12:08:11;95308.59;;;0.17;59.46
11808;BME280;5961;42.640;23.380;2023-02-07T12:10:41;95293.38;;;0.31;60.22
11808;BME280;5961;42.640;23.380;2023-02-07T12:13:12;95296.84;;;0.36;60.53
11808;BME280;5961;42.640;23.380;2023-02-07T12:15:43;95308.59;;;0.50;59.21
11808;BME280;5961;42.640;23.380;2023-02-07T12:18:17;95306.59;;;0.57;58.45
11808;BME280;5961;42.640;23.380;2023-02-07T12:20:50;95304.69;;;0.70;57.53
11808;BME280;5961;42.640;23.380;2023-02-07T12:23:23;95309.84;;;0.65;58.16
11808;BME280;5961;42.640;23.380;2023-02-07T12:25:55;95308.59;;;0.50;58.05
11808;BME280;5961;42.640;23.380;2023-02-07T12:28:30;95311.91;;;0.46;58.89
11808;BME280;5961;42.640;23.380;2023-02-07T12:33:32;95296.22;;;0.13;59.09
11808;BME280;5961;42.640;23.380;2023-02-07T12:36:06;95303.34;;;0.17;59.54
11808;BME280;5961;42.640;23.380;2023-02-07T12:38:41;95305.88;;;0.12;59.85
11808;BME280;5961;42.640;23.380;2023-02-07T12:41:14;95301.44;;;0.13;59.24
11808;BME280;5961;42.640;23.380;2023-02-07T12:43:47;95298.88;;;0.01;59.97
11808;BME280;5961;42.640;23.380;2023-02-07T12:46:27;95303.28;;;0.45;59.77
11808;BME280;5961;42.640;23.380;2023-02-07T12:49:30;95302.06;;;0.86;57.90
11808;BME280;5961;42.640;23.380;2023-02-07T12:52:14;95308.75;;;1.37;56.28
11808;BME280;5961;42.640;23.380;2023-02-07T12:54:52;95311.22;;;1.92;54.42
11808;BME280;5961;42.640;23.380;2023-02-07T12:57:32;95308.63;;;2.24;53.51
11808;BME280;5961;42.640;23.380;2023-02-07T13:00:04;95306.84;;;2.61;52.35
11808;BME280;5961;42.640;23.380;2023-02-07T13:02:42;95302.28;;;2.84;51.25
11808;BME280;5961;42.640;23.380;2023-02-07T13:05:32;95297.16;;;2.62;50.80
11808;BME280;5961;42.640;23.380;2023-02-07T13:08:09;95292.59;;;2.52;50.67
11808;BME280;5961;42.640;23.380;2023-02-07T13:10:47;95294.25;;;2.27;51.03
11808;BME280;5961;42.640;23.380;2023-02-07T13:13:21;95290.63;;;2.06;51.57
11808;BME280;5961;42.640;23.380;2023-02-07T13:15:53;95285.09;;;1.76;51.63
11808;BME280;5961;42.640;23.380;2023-02-07T13:18:24;95283.56;;;1.80;52.63
11808;BME280;5961;42.640;23.380;2023-02-07T13:21:00;95286.56;;;1.66;53.99
11808;BME280;5961;42.640;23.380;2023-02-07T13:23:31;95236.28;;;1.21;54.83